sensor_id;sensor_type;location;lat;lon;timestamp;temperature;humidity
9403;DHT22;4741;49.834;10.740;2022-10-04T00:02:19;6.20;99.90
9403;DHT22;4741;49.834;10.740;2022-10-04T00:04:50;7.20;99.90
9403;DHT22;4741;49.834;10.740;2022-10-04T00:07:22;6.60;99.90
9403;DHT22;4741;49.834;10.740;2022-10-04T00:09:57;6.30;99.90
9403;DHT22;4741;49.834;10.740;2022-10-04T00:12:36;6.30;99.90
9403;DHT22;4741;49.834;10.740;2022-10-04T00:15:04;6.30;99.90
9403;DHT22;4741;49.834;10.740;2022-10-04T00:17:32;6.00;99.90
9403;DHT22;4741;49.834;10.740;2022-10-04T00:20:03;7.10;99.90
9403;DHT22;4741;49.834;10.740;2022-10-04T00:22:30;6.30;99.90
9403;DHT22;4741;49.834;10.740;2022-10-04T00:25:13;5.80;99.90
9403;DHT22;4741;49.834;10.740;2022-10-04T00:30:34;5.90;99.90
9403;DHT22;4741;49.834;10.740;2022-10-04T00:33:02;6.20;99.90
9403;DHT22;4741;49.834;10.740;2022-10-04T00:40:24;5.70;99.90
9403;DHT22;4741;49.834;10.740;2022-10-04T00:42:59;5.50;99.90
9403;DHT22;4741;49.834;10.740;2022-10-04T00:45:32;5.60;99.90
9403;DHT22;4741;49.834;10.740;2022-10-04T00:48:02;5.90;99.90
9403;DHT22;4741;49.834;10.740;2022-10-04T00:50:32;5.70;99.90
9403;DHT22;4741;49.834;10.740;2022-10-04T00:53:00;5.50;99.90
9403;DHT22;4741;49.834;10.740;2022-10-04T00:58:00;5.60;99.90
9403;DHT22;4741;49.834;10.740;2022-10-04T01:00:28;5.70;99.90
9403;DHT22;4741;49.834;10.740;2022-10-04T01:03:04;5.70;99.90
9403;DHT22;4741;49.834;10.740;2022-10-04T01:05:41;5.60;99.90
9403;DHT22;4741;49.834;10.740;2022-10-04T01:08:13;5.50;99.90
9403;DHT22;4741;49.834;10.740;2022-10-04T01:10:49;5.40;99.90
9403;DHT22;4741;49.834;10.740;2022-10-04T01:16:03;5.40;99.90
9403;DHT22;4741;49.834;10.740;2022-10-04T01:18:34;5.20;99.90
9403;DHT22;4741;49.834;10.740;2022-10-04T01:21:06;5.20;99.90
9403;DHT22;4741;49.834;10.740;2022-10-04T01:28:52;5.60;99.90
9403;DHT22;4741;49.834;10.740;2022-10-04T01:31:18;5.50;99.90
9403;DHT22;4741;49.834;10.740;2022-10-04T01:33:46;5.50;99.90
9403;DHT22;4741;49.834;10.740;2022-10-04T01:36:13;5.50;99.90
9403;DHT22;4741;49.834;10.740;2022-10-04T01:38:40;5.60;99.90
9403;DHT22;4741;49.834;10.740;2022-10-04T01:41:07;5.50;99.90
9403;DHT22;4741;49.834;10.740;2022-10-04T01:43:35;5.70;99.90
9403;DHT22;4741;49.834;10.740;2022-10-04T01:46:10;5.40;99.90
9403;DHT22;4741;49.834;10.740;2022-10-04T01:48:39;5.50;99.90
9403;DHT22;4741;49.834;10.740;2022-10-04T01:51:10;5.50;99.90
9403;DHT22;4741;49.834;10.740;2022-10-04T01:53:43;6.10;99.90
9403;DHT22;4741;49.834;10.740;2022-10-04T01:56:14;5.50;99.90
9403;DHT22;4741;49.834;10.740;2022-10-04T01:58:42;5.60;99.90
9403;DHT22;4741;49.834;10.740;2022-10-04T02:01:14;5.60;99.90
9403;DHT22;4741;49.834;10.740;2022-10-04T02:03:44;5.70;99.90
9403;DHT22;4741;49.834;10.740;2022-10-04T02:06:12;6.30;99.90
9403;DHT22;4741;49.834;10.740;2022-10-04T02:08:46;5.70;99.90
9403;DHT22;4741;49.834;10.740;2022-10-04T02:11:16;5.70;99.90
9403;DHT22;4741;49.834;10.740;2022-10-04T02:13:44;5.60;99.90
9403;DHT22;4741;49.834;10.740;2022-10-04T02:16:12;5.50;99.90
9403;DHT22;4741;49.834;10.740;2022-10-04T02:18:39;5.50;99.90
9403;DHT22;4741;49.834;10.740;2022-10-04T02:21:09;5.60;99.90
9403;DHT22;4741;49.834;10.740;2022-10-04T02:23:36;5.70;99.90
9403;DHT22;4741;49.834;10.740;2022-10-04T02:26:07;5.60;99.90
9403;DHT22;4741;49.834;10.740;2022-10-04T02:28:34;5.50;99.90
9403;DHT22;4741;49.834;10.740;2022-10-04T02:31:01;5.40;99.90
9403;DHT22;4741;49.834;10.740;2022-10-04T02:33:48;5.50;99.90
9403;DHT22;4741;49.834;10.740;2022-10-04T02:36:16;5.70;99.90
9403;DHT22;4741;49.834;10.740;2022-10-04T02:38:53;5.70;99.90
9403;DHT22;4741;49.834;10.740;2022-10-04T02:44:12;5.80;99.90
9403;DHT22;4741;49.834;10.740;2022-10-04T02:49:13;5.70;99.90
9403;DHT22;4741;49.834;10.740;2022-10-04T02:52:11;5.60;99.90
9403;DHT22;4741;49.834;10.740;2022-10-04T02:54:46;6.30;99.90
9403;DHT22;4741;49.834;10.740;2022-10-04T02:57:15;5.70;99.90
9403;DHT22;4741;49.834;10.740;2022-10-04T02:59:43;5.60;99.90
9403;DHT22;4741;49.834;10.740;2022-10-04T03:02:24;5.60;99.90
9403;DHT22;4741;49.834;10.740;2022-10-04T03:04:57;5.50;99.90
9403;DHT22;4741;49.834;10.740;2022-10-04T03:07:25;5.40;99.90
9403;DHT22;4741;49.834;10.740;2022-10-04T03:09:52;5.40;99.90
9403;DHT22;4741;49.834;10.740;2022-10-04T03:12:19;5.30;99.90
9403;DHT22;4741;49.834;10.740;2022-10-04T03:14:47;5.30;99.90
9403;DHT22;4741;49.834;10.740;2022-10-04T03:17:14;5.40;99.90
9403;DHT22;4741;49.834;10.740;2022-10-04T03:19:41;5.40;99.90
9403;DHT22;4741;49.834;10.740;2022-10-04T03:22:09;5.40;99.90
9403;DHT22;4741;49.834;10.740;2022-10-04T03:24:44;5.40;99.90
9403;DHT22;4741;49.834;10.740;2022-10-04T03:27:15;5.40;99.90
9403;DHT22;4741;49.834;10.740;2022-10-04T03:29:42;6.20;99.90
9403;DHT22;4741;49.834;10.740;2022-10-04T03:32:10;5.60;99.90
9403;DHT22;4741;49.834;10.740;2022-10-04T03:34:39;5.60;99.90
9403;DHT22;4741;49.834;10.740;2022-10-04T03:37:08;5.70;99.90
9403;DHT22;4741;49.834;10.740;2022-10-04T03:39:38;5.70;99.90
9403;DHT22;4741;49.834;10.740;2022-10-04T03:42:09;6.00;99.90
9403;DHT22;4741;49.834;10.740;2022-10-04T03:44:37;6.40;99.90
9403;DHT22;4741;49.834;10.740;2022-10-04T03:47:08;5.70;99.90
9403;DHT22;4741;49.834;10.740;2022-10-04T03:49:36;5.70;99.90
9403;DHT22;4741;49.834;10.740;2022-10-04T03:52:03;5.70;99.90
9403;DHT22;4741;49.834;10.740;2022-10-04T03:54:31;5.70;99.90
9403;DHT22;4741;49.834;10.740;2022-10-04T03:56:58;6.50;99.90
9403;DHT22;4741;49.834;10.740;2022-10-04T03:59:25;5.70;99.90
9403;DHT22;4741;49.834;10.740;2022-10-04T04:02:04;5.70;99.90
9403;DHT22;4741;49.834;10.740;2022-10-04T04:04:40;5.70;99.90
9403;DHT22;4741;49.834;10.740;2022-10-04T04:12:37;5.70;99.90
9403;DHT22;4741;49.834;10.740;2022-10-04T04:15:05;5.70;99.90
9403;DHT22;4741;49.834;10.740;2022-10-04T04:18:10;5.70;99.90
9403;DHT22;4741;49.834;10.740;2022-10-04T04:20:27;5.60;99.90
9403;DHT22;4741;49.834;10.740;2022-10-04T04:22:59;5.70;99.90
9403;DHT22;4741;49.834;10.740;2022-10-04T04:25:27;5.80;99.90
9403;DHT22;4741;49.834;10.740;2022-10-04T04:27:59;5.90;99.90
9403;DHT22;4741;49.834;10.740;2022-10-04T04:30:27;5.80;99.90
9403;DHT22;4741;49.834;10.740;2022-10-04T04:32:56;5.70;99.90
9403;DHT22;4741;49.834;10.740;2022-10-04T04:35:30;6.00;99.90
9403;DHT22;4741;49.834;10.740;2022-10-04T04:38:01;5.80;99.90
9403;DHT22;4741;49.834;10.740;2022-10-04T04:40:28;5.80;99.90
9403;DHT22;4741;49.834;10.740;2022-10-04T04:42:56;5.70;99.90
9403;DHT22;4741;49.834;10.740;2022-10-04T04:45:23;5.70;99.90
9403;DHT22;4741;49.834;10.740;2022-10-04T04:47:51;5.70;99.90
9403;DHT22;4741;49.834;10.740;2022-10-04T04:50:19;5.60;99.90
9403;DHT22;4741;49.834;10.740;2022-10-04T04:52:48;5.70;99.90
9403;DHT22;4741;49.834;10.740;2022-10-04T04:55:18;5.80;99.90
9403;DHT22;4741;49.834;10.740;2022-10-04T04:57:45;5.70;99.90
9403;DHT22;4741;49.834;10.740;2022-10-04T05:00:17;5.70;99.90
9403;DHT22;4741;49.834;10.740;2022-10-04T05:02:51;5.60;99.90
9403;DHT22;4741;49.834;10.740;2022-10-04T05:05:25;5.60;99.90
9403;DHT22;4741;49.834;10.740;2022-10-04T05:08:07;5.60;99.90
9403;DHT22;4741;49.834;10.740;2022-10-04T05:10:37;5.60;99.90
9403;DHT22;4741;49.834;10.740;2022-10-04T05:13:04;6.30;99.90
9403;DHT22;4741;49.834;10.740;2022-10-04T05:15:34;5.50;99.90
9403;DHT22;4741;49.834;10.740;2022-10-04T05:18:02;5.50;99.90
9403;DHT22;4741;49.834;10.740;2022-10-04T05:20:38;5.60;99.90
9403;DHT22;4741;49.834;10.740;2022-10-04T05:23:07;5.60;99.90
9403;DHT22;4741;49.834;10.740;2022-10-04T05:25:36;5.50;99.90
9403;DHT22;4741;49.834;10.740;2022-10-04T05:28:03;5.60;99.90
9403;DHT22;4741;49.834;10.740;2022-10-04T05:33:17;5.60;99.90
9403;DHT22;4741;49.834;10.740;2022-10-04T05:38:26;5.70;99.90
9403;DHT22;4741;49.834;10.740;2022-10-04T05:43:49;5.70;99.90
9403;DHT22;4741;49.834;10.740;2022-10-04T05:46:18;6.20;99.90
9403;DHT22;4741;49.834;10.740;2022-10-04T05:48:47;6.40;99.90
9403;DHT22;4741;49.834;10.740;2022-10-04T05:51:24;5.70;99.90
9403;DHT22;4741;49.834;10.740;2022-10-04T05:53:51;5.80;99.90
9403;DHT22;4741;49.834;10.740;2022-10-04T05:59:17;5.90;99.90
9403;DHT22;4741;49.834;10.740;2022-10-04T06:17:56;5.80;99.90
9403;DHT22;4741;49.834;10.740;2022-10-04T06:23:16;6.20;99.90
9403;DHT22;4741;49.834;10.740;2022-10-04T06:25:50;6.30;99.90
9403;DHT22;4741;49.834;10.740;2022-10-04T06:29:02;6.30;99.90
9403;DHT22;4741;49.834;10.740;2022-10-04T06:34:03;6.50;99.90
9403;DHT22;4741;49.834;10.740;2022-10-04T06:39:25;6.40;99.90
9403;DHT22;4741;49.834;10.740;2022-10-04T06:44:43;6.30;99.90
9403;DHT22;4741;49.834;10.740;2022-10-04T06:52:18;6.60;99.90
9403;DHT22;4741;49.834;10.740;2022-10-04T06:57:41;6.60;99.90
9403;DHT22;4741;49.834;10.740;2022-10-04T07:00:21;6.60;99.90
9403;DHT22;4741;49.834;10.740;2022-10-04T07:03:03;6.70;99.90
9403;DHT22;4741;49.834;10.740;2022-10-04T07:05:37;6.60;99.90
9403;DHT22;4741;49.834;10.740;2022-10-04T07:08:09;6.60;99.90
9403;DHT22;4741;49.834;10.740;2022-10-04T07:10:45;7.00;99.90
9403;DHT22;4741;49.834;10.740;2022-10-04T07:18:12;7.40;99.90
9403;DHT22;4741;49.834;10.740;2022-10-04T07:20:40;7.10;99.90
9403;DHT22;4741;49.834;10.740;2022-10-04T07:23:12;7.10;99.90
9403;DHT22;4741;49.834;10.740;2022-10-04T07:25:43;7.10;99.90
9403;DHT22;4741;49.834;10.740;2022-10-04T07:28:15;7.20;99.90
9403;DHT22;4741;49.834;10.740;2022-10-04T07:31:09;7.30;99.90
9403;DHT22;4741;49.834;10.740;2022-10-04T07:33:44;7.40;99.90
9403;DHT22;4741;49.834;10.740;2022-10-04T07:36:18;7.40;99.90
9403;DHT22;4741;49.834;10.740;2022-10-04T07:38:48;7.30;99.90
9403;DHT22;4741;49.834;10.740;2022-10-04T07:41:27;7.30;99.90
9403;DHT22;4741;49.834;10.740;2022-10-04T07:43:59;7.30;99.90
9403;DHT22;4741;49.834;10.740;2022-10-04T07:49:02;7.60;99.90
9403;DHT22;4741;49.834;10.740;2022-10-04T07:54:58;8.00;99.90
9403;DHT22;4741;49.834;10.740;2022-10-04T08:00:10;8.40;99.90
9403;DHT22;4741;49.834;10.740;2022-10-04T08:02:48;8.50;99.90
9403;DHT22;4741;49.834;10.740;2022-10-04T08:13:02;8.90;99.90
9403;DHT22;4741;49.834;10.740;2022-10-04T08:23:21;9.10;99.90
9403;DHT22;4741;49.834;10.740;2022-10-04T08:42:46;9.60;99.90
9403;DHT22;4741;49.834;10.740;2022-10-04T09:01:26;10.10;99.90
9403;DHT22;4741;49.834;10.740;2022-10-04T09:04:20;10.20;99.90
9403;DHT22;4741;49.834;10.740;2022-10-04T09:12:24;10.80;99.90
9403;DHT22;4741;49.834;10.740;2022-10-04T09:23:00;11.40;99.90
9403;DHT22;4741;49.834;10.740;2022-10-04T09:33:37;11.80;99.90
9403;DHT22;4741;49.834;10.740;2022-10-04T09:42:03;11.70;99.90
9403;DHT22;4741;49.834;10.740;2022-10-04T09:50:01;12.00;99.90
9403;DHT22;4741;49.834;10.740;2022-10-04T09:52:43;12.10;99.90
9403;DHT22;4741;49.834;10.740;2022-10-04T09:55:17;12.30;99.90
9403;DHT22;4741;49.834;10.740;2022-10-04T10:05:55;12.60;99.90
9403;DHT22;4741;49.834;10.740;2022-10-04T10:19:31;13.40;99.90
9403;DHT22;4741;49.834;10.740;2022-10-04T10:24:52;14.00;99.90
9403;DHT22;4741;49.834;10.740;2022-10-04T11:00:21;14.70;99.90
9403;DHT22;4741;49.834;10.740;2022-10-04T11:03:15;14.70;99.90
9403;DHT22;4741;49.834;10.740;2022-10-04T11:06:10;14.80;99.90
9403;DHT22;4741;49.834;10.740;2022-10-04T11:55:12;16.70;99.90
9403;DHT22;4741;49.834;10.740;2022-10-04T11:58:01;16.70;99.90
9403;DHT22;4741;49.834;10.740;2022-10-04T12:05:45;16.80;99.90
9403;DHT22;4741;49.834;10.740;2022-10-04T12:21:49;18.10;99.90
9403;DHT22;4741;49.834;10.740;2022-10-04T12:54:29;22.10;99.90
9403;DHT22;4741;49.834;10.740;2022-10-04T12:59:50;22.20;99.90
9403;DHT22;4741;49.834;10.740;2022-10-04T13:04:54;22.70;99.90
9403;DHT22;4741;49.834;10.740;2022-10-04T13:15:38;22.90;99.90
9403;DHT22;4741;49.834;10.740;2022-10-04T13:21:15;22.70;99.90
9403;DHT22;4741;49.834;10.740;2022-10-04T13:31:08;23.60;99.90
9403;DHT22;4741;49.834;10.740;2022-10-04T14:03:49;25.20;99.90
9403;DHT22;4741;49.834;10.740;2022-10-04T14:19:07;24.70;99.90
9403;DHT22;4741;49.834;10.740;2022-10-04T14:42:08;25.40;99.90
9403;DHT22;4741;49.834;10.740;2022-10-04T14:55:31;24.30;99.90
9403;DHT22;4741;49.834;10.740;2022-10-04T14:57:51;24.10;99.90
9403;DHT22;4741;49.834;10.740;2022-10-04T15:20:21;24.00;98.50
9403;DHT22;4741;49.834;10.740;2022-10-04T15:22:51;24.00;99.00
9403;DHT22;4741;49.834;10.740;2022-10-04T15:28:01;24.30;98.90
9403;DHT22;4741;49.834;10.740;2022-10-04T15:30:48;23.90;99.30
9403;DHT22;4741;49.834;10.740;2022-10-04T15:41:15;23.90;99.20
9403;DHT22;4741;49.834;10.740;2022-10-04T15:43:56;24.20;98.90
9403;DHT22;4741;49.834;10.740;2022-10-04T15:56:32;21.00;99.90
9403;DHT22;4741;49.834;10.740;2022-10-04T16:08:53;20.00;99.90
9403;DHT22;4741;49.834;10.740;2022-10-04T16:31:22;16.50;99.90
9403;DHT22;4741;49.834;10.740;2022-10-04T16:36:48;16.00;99.90
9403;DHT22;4741;49.834;10.740;2022-10-04T16:39:34;16.20;99.90
9403;DHT22;4741;49.834;10.740;2022-10-04T16:42:22;15.60;99.90
9403;DHT22;4741;49.834;10.740;2022-10-04T16:44:51;15.60;99.90
9403;DHT22;4741;49.834;10.740;2022-10-04T16:47:30;15.60;99.90
9403;DHT22;4741;49.834;10.740;2022-10-04T16:49:58;15.30;99.90
9403;DHT22;4741;49.834;10.740;2022-10-04T16:55:00;16.10;99.90
9403;DHT22;4741;49.834;10.740;2022-10-04T16:59:56;14.70;99.90
9403;DHT22;4741;49.834;10.740;2022-10-04T17:10:33;14.00;99.90
9403;DHT22;4741;49.834;10.740;2022-10-04T17:15:55;13.80;99.90
9403;DHT22;4741;49.834;10.740;2022-10-04T17:43:02;11.80;99.90
9403;DHT22;4741;49.834;10.740;2022-10-04T17:48:15;11.90;99.90
9403;DHT22;4741;49.834;10.740;2022-10-04T17:53:59;11.80;99.90
9403;DHT22;4741;49.834;10.740;2022-10-04T18:36:05;10.10;99.90
9403;DHT22;4741;49.834;10.740;2022-10-04T18:38:37;10.10;99.90
9403;DHT22;4741;49.834;10.740;2022-10-04T18:46:23;9.90;99.90
9403;DHT22;4741;49.834;10.740;2022-10-04T18:48:53;9.70;99.90
9403;DHT22;4741;49.834;10.740;2022-10-04T18:51:28;9.90;99.90
9403;DHT22;4741;49.834;10.740;2022-10-04T19:02:19;10.20;99.90
9403;DHT22;4741;49.834;10.740;2022-10-04T19:04:59;10.10;99.90
9403;DHT22;4741;49.834;10.740;2022-10-04T19:07:36;10.10;99.90
9403;DHT22;4741;49.834;10.740;2022-10-04T19:10:18;9.90;99.90
9403;DHT22;4741;49.834;10.740;2022-10-04T19:23:10;9.90;99.90
9403;DHT22;4741;49.834;10.740;2022-10-04T19:25:44;9.80;99.90
9403;DHT22;4741;49.834;10.740;2022-10-04T19:28:32;9.90;99.90
9403;DHT22;4741;49.834;10.740;2022-10-04T19:44:23;9.50;99.90
9403;DHT22;4741;49.834;10.740;2022-10-04T19:51:55;9.30;99.90
9403;DHT22;4741;49.834;10.740;2022-10-04T19:54:32;9.00;99.90
9403;DHT22;4741;49.834;10.740;2022-10-04T19:57:01;9.10;99.90
9403;DHT22;4741;49.834;10.740;2022-10-04T19:59:38;9.10;99.90
9403;DHT22;4741;49.834;10.740;2022-10-04T20:02:08;9.00;99.90
9403;DHT22;4741;49.834;10.740;2022-10-04T20:04:35;8.90;99.90
9403;DHT22;4741;49.834;10.740;2022-10-04T20:07:09;8.80;99.90
9403;DHT22;4741;49.834;10.740;2022-10-04T20:15:20;8.40;99.90
9403;DHT22;4741;49.834;10.740;2022-10-04T20:17:53;8.70;99.90
9403;DHT22;4741;49.834;10.740;2022-10-04T20:23:05;8.30;99.90
9403;DHT22;4741;49.834;10.740;2022-10-04T20:28:09;8.20;99.90
9403;DHT22;4741;49.834;10.740;2022-10-04T20:36:08;8.30;99.90
9403;DHT22;4741;49.834;10.740;2022-10-04T20:38:55;8.30;99.90
9403;DHT22;4741;49.834;10.740;2022-10-04T20:43:55;8.30;99.90
9403;DHT22;4741;49.834;10.740;2022-10-04T20:46:23;8.20;99.90
9403;DHT22;4741;49.834;10.740;2022-10-04T20:48:50;8.10;99.90
9403;DHT22;4741;49.834;10.740;2022-10-04T20:51:19;8.80;99.90
9403;DHT22;4741;49.834;10.740;2022-10-04T20:53:48;8.20;99.90
9403;DHT22;4741;49.834;10.740;2022-10-04T20:58:51;8.70;99.90
9403;DHT22;4741;49.834;10.740;2022-10-04T21:01:23;7.80;99.90
9403;DHT22;4741;49.834;10.740;2022-10-04T21:07:19;7.60;99.90
9403;DHT22;4741;49.834;10.740;2022-10-04T21:09:46;7.60;99.90
9403;DHT22;4741;49.834;10.740;2022-10-04T21:17:37;7.50;99.90
9403;DHT22;4741;49.834;10.740;2022-10-04T21:20:05;7.50;99.90
9403;DHT22;4741;49.834;10.740;2022-10-04T21:22:32;7.60;99.90
9403;DHT22;4741;49.834;10.740;2022-10-04T21:25:04;7.70;99.90
9403;DHT22;4741;49.834;10.740;2022-10-04T21:27:31;7.80;99.90
9403;DHT22;4741;49.834;10.740;2022-10-04T21:29:59;7.80;99.90
9403;DHT22;4741;49.834;10.740;2022-10-04T21:32:26;7.80;99.90
9403;DHT22;4741;49.834;10.740;2022-10-04T21:34:57;7.70;99.90
9403;DHT22;4741;49.834;10.740;2022-10-04T21:37:24;7.70;99.90
9403;DHT22;4741;49.834;10.740;2022-10-04T21:39:50;7.40;99.90
9403;DHT22;4741;49.834;10.740;2022-10-04T21:42:17;7.40;99.90
9403;DHT22;4741;49.834;10.740;2022-10-04T21:44:43;7.20;99.90
9403;DHT22;4741;49.834;10.740;2022-10-04T21:47:10;7.00;99.90
9403;DHT22;4741;49.834;10.740;2022-10-04T21:49:37;7.20;99.90
9403;DHT22;4741;49.834;10.740;2022-10-04T21:52:04;7.30;99.90
9403;DHT22;4741;49.834;10.740;2022-10-04T21:54:30;7.20;99.90
9403;DHT22;4741;49.834;10.740;2022-10-04T21:56:57;7.20;99.90
9403;DHT22;4741;49.834;10.740;2022-10-04T22:01:50;7.10;99.90
9403;DHT22;4741;49.834;10.740;2022-10-04T22:04:17;6.90;99.90
9403;DHT22;4741;49.834;10.740;2022-10-04T22:06:44;6.90;99.90
9403;DHT22;4741;49.834;10.740;2022-10-04T22:09:11;6.80;99.90
9403;DHT22;4741;49.834;10.740;2022-10-04T22:11:38;6.90;99.90
9403;DHT22;4741;49.834;10.740;2022-10-04T22:14:04;6.70;99.90
9403;DHT22;4741;49.834;10.740;2022-10-04T22:16:31;6.30;99.90
9403;DHT22;4741;49.834;10.740;2022-10-04T22:18:57;7.80;99.90
9403;DHT22;4741;49.834;10.740;2022-10-04T22:21:24;6.80;99.90
9403;DHT22;4741;49.834;10.740;2022-10-04T22:23:51;6.80;99.90
9403;DHT22;4741;49.834;10.740;2022-10-04T22:26:18;8.70;99.90
9403;DHT22;4741;49.834;10.740;2022-10-04T22:28:46;6.30;99.90
9403;DHT22;4741;49.834;10.740;2022-10-04T22:31:14;6.10;99.90
9403;DHT22;4741;49.834;10.740;2022-10-04T22:33:42;6.40;99.90
9403;DHT22;4741;49.834;10.740;2022-10-04T22:38:50;7.10;99.90
9403;DHT22;4741;49.834;10.740;2022-10-04T22:41:17;6.90;99.90
9403;DHT22;4741;49.834;10.740;2022-10-04T22:43:48;6.60;99.90
9403;DHT22;4741;49.834;10.740;2022-10-04T22:46:16;8.00;99.90
9403;DHT22;4741;49.834;10.740;2022-10-04T22:48:47;6.70;99.90
9403;DHT22;4741;49.834;10.740;2022-10-04T22:51:13;6.90;99.90
9403;DHT22;4741;49.834;10.740;2022-10-04T22:53:40;6.80;99.90
9403;DHT22;4741;49.834;10.740;2022-10-04T22:56:08;6.80;99.90
9403;DHT22;4741;49.834;10.740;2022-10-04T22:58:35;6.90;99.90
9403;DHT22;4741;49.834;10.740;2022-10-04T23:01:02;6.80;99.90
9403;DHT22;4741;49.834;10.740;2022-10-04T23:03:30;6.70;99.90
9403;DHT22;4741;49.834;10.740;2022-10-04T23:05:57;6.70;99.90
9403;DHT22;4741;49.834;10.740;2022-10-04T23:08:24;6.70;99.90
9403;DHT22;4741;49.834;10.740;2022-10-04T23:10:54;6.60;99.90
9403;DHT22;4741;49.834;10.740;2022-10-04T23:13:22;6.70;99.90
9403;DHT22;4741;49.834;10.740;2022-10-04T23:15:50;6.60;99.90
9403;DHT22;4741;49.834;10.740;2022-10-04T23:18:17;6.60;99.90
9403;DHT22;4741;49.834;10.740;2022-10-04T23:20:47;6.90;99.90
9403;DHT22;4741;49.834;10.740;2022-10-04T23:23:14;7.00;99.90
9403;DHT22;4741;49.834;10.740;2022-10-04T23:25:47;6.80;99.90
9403;DHT22;4741;49.834;10.740;2022-10-04T23:28:14;6.90;99.90
9403;DHT22;4741;49.834;10.740;2022-10-04T23:30:41;6.80;99.90
9403;DHT22;4741;49.834;10.740;2022-10-04T23:33:13;6.60;99.90
9403;DHT22;4741;49.834;10.740;2022-10-04T23:35:41;6.80;99.90
9403;DHT22;4741;49.834;10.740;2022-10-04T23:38:12;6.90;99.90
9403;DHT22;4741;49.834;10.740;2022-10-04T23:40:39;7.10;99.90
9403;DHT22;4741;49.834;10.740;2022-10-04T23:43:07;6.90;99.90
9403;DHT22;4741;49.834;10.740;2022-10-04T23:50:35;6.30;99.90
